Time;durP1;ratioP1;P1;durP2;ratioP2;P2;SDS_P1;SDS_P2;PMS_P1;PMS_P2;Temp;Humidity;BMP_temperature;BMP_pressure;BME280_temperature;BME280_humidity;BME280_pressure;Samples;Min_cycle;Max_cycle;Signal;HPM_P1;HPM_P2
2021/04/30 00:00:19;;;;;;;;;;;;;;;14.13;76.32;98743.72;5115855;28;19924;-73
2021/04/30 00:02:48;;;;;;;;;;;;;;;14.11;76.59;98742.88;5115170;28;19976;-72
2021/04/30 00:05:16;;;;;;;;;;;;;;;14.09;77.21;98736.97;5115233;27;19971;-73
2021/04/30 00:07:45;;;;;;;;;;;;;;;14.07;77.32;98738.75;5115133;28;19924;-73
2021/04/30 00:10:13;;;;;;;;;;;;;;;14.03;77.66;98742.28;5115106;28;20044;-73
2021/04/30 00:12:41;;;;;;;;;;;;;;;14.01;78.10;98733.81;5115618;28;19928;-73
2021/04/30 00:15:09;;;;;;;;;;;;;;;14.02;78.11;98744.00;5114957;28;19931;-73
2021/04/30 00:17:37;;;;;;;;;;;;;;;14.04;78.26;98746.53;5115285;28;20031;-73
2021/04/30 00:20:06;;;;;;;;;;;;;;;14.03;78.46;98747.44;5148131;27;20422;-74
2021/04/30 00:22:33;;;;;;;;;;;;;;;14.02;78.74;98745.72;5114919;28;19927;-73
2021/04/30 00:25:03;;;;;;;;;;;;;;;13.99;79.00;98735.56;5113605;28;19928;-73
2021/04/30 00:27:31;;;;;;;;;;;;;;;13.99;79.08;98725.28;5114781;28;19931;-73
2021/04/30 00:29:59;;;;;;;;;;;;;;;13.99;79.01;98730.44;5113165;28;19931;-73
2021/04/30 00:32:28;;;;;;;;;;;;;;;13.99;78.82;98727.84;5114525;28;20005;-73
2021/04/30 00:35:02;;;;;;;;;;;;;;;13.97;79.06;98740.75;5113610;28;19927;-73
2021/04/30 00:37:30;;;;;;;;;;;;;;;13.96;79.06;98730.53;5114676;28;19924;-73
2021/04/30 00:39:58;;;;;;;;;;;;;;;13.89;79.34;98740.13;5114566;28;19931;-73
2021/04/30 00:42:26;;;;;;;;;;;;;;;13.80;79.67;98740.38;5114628;28;19923;-73
2021/04/30 00:44:54;;;;;;;;;;;;;;;13.71;79.91;98734.69;5114513;28;19924;-73
2021/04/30 00:47:29;;;;;;;;;;;;;;;13.65;79.87;98734.88;5114575;28;19928;-73
2021/04/30 00:50:00;;;;;;;;;;;;;;;13.61;80.30;98743.50;5096952;28;19931;-73
2021/04/30 00:52:28;;;;;;;;;;;;;;;13.61;80.45;98734.09;5114552;28;19958;-73
2021/04/30 00:54:56;;;;;;;;;;;;;;;13.63;80.45;98736.66;5114361;28;20334;-73
2021/04/30 00:57:24;;;;;;;;;;;;;;;13.66;80.85;98731.41;5113510;28;19924;-73
2021/04/30 00:59:53;;;;;;;;;;;;;;;13.71;80.73;98732.13;5114178;28;19927;-73
2021/04/30 01:02:21;;;;;;;;;;;;;;;13.75;80.77;98728.59;5114369;28;19947;-74
2021/04/30 01:04:49;;;;;;;;;;;;;;;13.76;80.72;98722.56;5114303;28;20389;-74
2021/04/30 01:07:17;;;;;;;;;;;;;;;13.75;80.81;98731.16;5096178;28;20384;-74
2021/04/30 01:09:44;;;;;;;;;;;;;;;13.72;81.09;98736.38;5114308;28;20369;-74
2021/04/30 01:12:12;;;;;;;;;;;;;;;13.65;80.88;98748.53;5114598;28;19963;-74
2021/04/30 01:14:40;;;;;;;;;;;;;;;13.58;81.13;98748.75;5114426;28;20308;-74
2021/04/30 01:17:10;;;;;;;;;;;;;;;13.54;81.47;98757.38;5114234;28;20343;-74
2021/04/30 01:19:38;;;;;;;;;;;;;;;13.55;81.62;98753.94;5114145;28;19932;-74
2021/04/30 01:22:09;;;;;;;;;;;;;;;13.54;81.51;98752.25;5114202;28;19924;-74
2021/04/30 01:24:36;;;;;;;;;;;;;;;13.52;81.71;98754.88;5096285;28;19923;-74
2021/04/30 01:27:05;;;;;;;;;;;;;;;13.50;81.83;98751.53;5114104;28;19959;-74
2021/04/30 01:29:33;;;;;;;;;;;;;;;13.44;81.87;98761.91;5114104;28;19931;-74
2021/04/30 01:32:01;;;;;;;;;;;;;;;13.38;81.82;98762.94;5096070;28;20377;-74
2021/04/30 01:34:29;;;;;;;;;;;;;;;13.35;81.94;98767.31;5114069;28;19959;-74
2021/04/30 01:36:57;;;;;;;;;;;;;;;13.31;82.04;98781.94;5114235;28;19931;-74
2021/04/30 01:39:26;;;;;;;;;;;;;;;13.28;82.17;98793.97;5114021;28;19969;-74
2021/04/30 01:41:54;;;;;;;;;;;;;;;13.26;82.39;98786.34;5096101;28;19973;-74
2021/04/30 01:44:22;;;;;;;;;;;;;;;13.29;82.40;98788.78;5096093;28;19976;-74
2021/04/30 01:46:50;;;;;;;;;;;;;;;13.29;82.58;98783.66;5117801;28;19927;-74
2021/04/30 01:49:18;;;;;;;;;;;;;;;13.27;82.63;98790.56;5117834;28;19931;-75
2021/04/30 01:51:46;;;;;;;;;;;;;;;13.28;82.57;98792.25;5117782;28;19950;-75
2021/04/30 01:54:13;;;;;;;;;;;;;;;13.30;82.51;98784.50;5117732;28;19925;-74
2021/04/30 01:56:42;;;;;;;;;;;;;;;13.30;82.52;98782.81;5117600;28;19962;-75
2021/04/30 01:59:10;;;;;;;;;;;;;;;13.32;82.71;98782.75;5117370;28;19966;-74
2021/04/30 02:01:38;;;;;;;;;;;;;;;13.32;82.96;98787.88;5117594;28;19928;-74
2021/04/30 02:04:10;;;;;;;;;;;;;;;13.34;82.58;98797.22;5117553;28;19924;-75
2021/04/30 02:06:38;;;;;;;;;;;;;;;13.30;82.88;98790.50;5082809;28;20440;-74
2021/04/30 02:09:07;;;;;;;;;;;;;;;13.29;82.89;98799.03;5117404;28;19923;-75
2021/04/30 02:11:35;;;;;;;;;;;;;;;13.29;82.96;98798.22;5117401;28;19950;-75
2021/04/30 02:14:04;;;;;;;;;;;;;;;13.25;82.76;98797.44;5117378;28;19928;-75
2021/04/30 02:16:32;;;;;;;;;;;;;;;13.27;83.16;98795.69;5117261;28;20014;-75
2021/04/30 02:19:10;;;;;;;;;;;;;;;13.26;82.91;98803.41;5117265;28;19972;-74
2021/04/30 02:21:38;;;;;;;;;;;;;;;13.29;83.21;98808.47;5117298;28;19935;-74
2021/04/30 02:24:06;;;;;;;;;;;;;;;13.32;83.16;98808.38;5117197;28;19923;-74
2021/04/30 02:26:33;;;;;;;;;;;;;;;13.30;83.02;98808.44;5117092;28;19924;-74
2021/04/30 02:29:01;;;;;;;;;;;;;;;13.30;83.12;98800.75;5117085;28;20371;-75
2021/04/30 02:31:30;;;;;;;;;;;;;;;13.28;82.97;98802.50;5117027;28;19924;-75
2021/04/30 02:33:58;;;;;;;;;;;;;;;13.27;83.28;98805.94;5098994;28;19985;-75
2021/04/30 02:36:26;;;;;;;;;;;;;;;13.24;83.04;98800.06;5116939;28;19924;-75
2021/04/30 02:38:54;;;;;;;;;;;;;;;13.21;82.98;98808.66;5116773;28;19923;-75
2021/04/30 02:41:21;;;;;;;;;;;;;;;13.17;82.98;98809.59;5116840;28;19928;-75
2021/04/30 02:43:49;;;;;;;;;;;;;;;13.11;82.86;98820.03;5098823;28;19924;-75
2021/04/30 02:46:17;;;;;;;;;;;;;;;13.10;83.18;98818.31;5116751;28;19946;-75
2021/04/30 02:48:48;;;;;;;;;;;;;;;13.09;83.23;98824.34;5116708;28;19924;-74
2021/04/30 02:51:15;;;;;;;;;;;;;;;13.09;83.34;98819.22;5116726;28;20400;-75
2021/04/30 02:53:43;;;;;;;;;;;;;;;13.10;83.52;98823.44;5116620;28;19924;-75
2021/04/30 02:56:11;;;;;;;;;;;;;;;13.08;83.57;98827.78;5116464;28;19928;-75
2021/04/30 02:58:39;;;;;;;;;;;;;;;13.10;83.50;98823.44;5116199;28;20018;-75
2021/04/30 03:01:07;;;;;;;;;;;;;;;13.13;83.88;98825.94;5116854;28;19924;-75
2021/04/30 03:03:34;;;;;;;;;;;;;;;13.18;83.79;98824.13;5116435;28;19969;-74
2021/04/30 03:06:03;;;;;;;;;;;;;;;13.19;83.96;98823.25;5116403;28;19928;-74
2021/04/30 03:08:31;;;;;;;;;;;;;;;13.21;83.91;98824.03;5116225;28;19970;-75
2021/04/30 03:10:59;;;;;;;;;;;;;;;13.23;84.24;98829.13;5116299;28;19923;-75
2021/04/30 03:13:26;;;;;;;;;;;;;;;13.26;84.09;98829.91;5098359;28;20006;-74
2021/04/30 03:15:54;;;;;;;;;;;;;;;13.31;84.20;98822.09;5116444;28;20361;-74
2021/04/30 03:18:22;;;;;;;;;;;;;;;13.34;84.34;98820.28;5116062;28;20395;-75
2021/04/30 03:20:49;;;;;;;;;;;;;;;13.37;84.29;98817.63;5116103;28;19931;-74
2021/04/30 03:23:18;;;;;;;;;;;;;;;13.35;84.06;98818.56;5115903;28;20258;-74
2021/04/30 03:25:45;;;;;;;;;;;;;;;13.33;84.19;98831.41;5115962;28;20022;-74
2021/04/30 03:28:13;;;;;;;;;;;;;;;13.31;84.06;98833.19;5115937;28;19930;-74
2021/04/30 03:30:41;;;;;;;;;;;;;;;13.28;83.91;98833.25;5115831;28;19923;-74
2021/04/30 03:33:09;;;;;;;;;;;;;;;13.20;84.02;98835.16;5115691;28;19938;-74
2021/04/30 03:35:37;;;;;;;;;;;;;;;13.13;84.17;98841.31;5115669;28;20380;-74
2021/04/30 03:38:05;;;;;;;;;;;;;;;13.08;83.89;98848.25;5115715;28;19931;-74
2021/04/30 03:40:39;;;;;;;;;;;;;;;13.03;84.24;98850.06;5115552;28;20462;-74
2021/04/30 03:43:07;;;;;;;;;;;;;;;13.01;84.05;98859.50;5114425;28;20365;-74
2021/04/30 03:45:35;;;;;;;;;;;;;;;12.98;84.03;98859.56;5115585;28;19985;-74
2021/04/30 03:48:02;;;;;;;;;;;;;;;13.04;84.10;98864.56;5115516;28;19927;-74
2021/04/30 03:50:35;;;;;;;;;;;;;;;13.08;84.29;98861.06;5115576;28;19930;-75
2021/04/30 03:53:02;;;;;;;;;;;;;;;13.15;84.23;98865.19;5115404;28;19932;-74
2021/04/30 03:55:30;;;;;;;;;;;;;;;13.17;84.19;98870.28;5115415;28;19924;-74
2021/04/30 03:57:59;;;;;;;;;;;;;;;13.14;84.14;98866.06;5116537;27;19977;-75
2021/04/30 04:00:27;;;;;;;;;;;;;;;13.17;84.26;98868.53;5135852;27;19974;-74
2021/04/30 04:02:55;;;;;;;;;;;;;;;13.18;84.40;98877.91;5135732;27;20022;-75
2021/04/30 04:05:23;;;;;;;;;;;;;;;13.21;84.31;98885.53;5135733;27;19931;-75
2021/04/30 04:07:51;;;;;;;;;;;;;;;13.22;84.31;98888.94;5135122;27;20345;-75
2021/04/30 04:10:18;;;;;;;;;;;;;;;13.25;84.13;98884.56;5135703;27;19927;-74
2021/04/30 04:12:46;;;;;;;;;;;;;;;13.25;84.42;98894.81;5135604;27;20300;-74
2021/04/30 04:15:16;;;;;;;;;;;;;;;13.26;84.41;98901.66;5135564;27;19923;-74
2021/04/30 04:17:44;;;;;;;;;;;;;;;13.29;84.45;98901.56;5135568;27;19972;-74
2021/04/30 04:20:12;;;;;;;;;;;;;;;13.32;84.42;98906.59;5135426;27;19934;-74
2021/04/30 04:22:40;;;;;;;;;;;;;;;13.37;84.36;98907.34;5135412;27;20345;-75
2021/04/30 04:25:08;;;;;;;;;;;;;;;13.39;84.75;98907.28;5135361;27;19924;-74
2021/04/30 04:27:36;;;;;;;;;;;;;;;13.43;84.38;98914.91;5135357;27;20319;-75
2021/04/30 04:30:07;;;;;;;;;;;;;;;13.49;84.43;98923.28;5135345;27;19931;-74
2021/04/30 04:32:35;;;;;;;;;;;;;;;13.50;84.67;98925.00;5135393;27;19923;-74
2021/04/30 04:35:03;;;;;;;;;;;;;;;13.51;84.45;98931.81;5135228;27;19959;-74
2021/04/30 04:37:31;;;;;;;;;;;;;;;13.49;84.44;98941.25;5117162;28;20030;-75
2021/04/30 04:39:58;;;;;;;;;;;;;;;13.50;84.31;98950.63;5135075;27;19953;-74
2021/04/30 04:42:26;;;;;;;;;;;;;;;13.49;84.21;98962.59;5135066;27;19972;-73
2021/04/30 04:44:54;;;;;;;;;;;;;;;13.51;84.17;98967.69;5135093;27;19923;-73
2021/04/30 04:47:22;;;;;;;;;;;;;;;13.46;84.04;98980.59;5117071;28;20236;-71
2021/04/30 04:49:53;;;;;;;;;;;;;;;13.41;84.35;98978.16;5135089;27;19927;-73
2021/04/30 04:52:21;;;;;;;;;;;;;;;13.41;84.23;98972.22;5134878;27;20319;-72
2021/04/30 04:54:49;;;;;;;;;;;;;;;13.42;84.45;98974.72;5134898;27;19924;-72
2021/04/30 04:57:17;;;;;;;;;;;;;;;13.44;84.46;98967.84;5135184;27;19923;-72
2021/04/30 04:59:45;;;;;;;;;;;;;;;13.47;84.45;98971.19;5134646;28;19924;-73
2021/04/30 05:02:12;;;;;;;;;;;;;;;13.49;84.48;98969.44;5134883;28;19980;-73
2021/04/30 05:04:42;;;;;;;;;;;;;;;13.52;84.85;98974.50;5134947;28;20368;-73
2021/04/30 05:07:11;;;;;;;;;;;;;;;13.55;84.48;98985.53;5116481;28;19928;-73
2021/04/30 05:09:39;;;;;;;;;;;;;;;13.59;84.85;98992.25;5134836;28;20381;-73
2021/04/30 05:12:07;;;;;;;;;;;;;;;13.61;84.57;98987.09;5134755;28;19923;-73
2021/04/30 05:14:36;;;;;;;;;;;;;;;13.63;84.43;98987.91;5134997;28;19927;-74
2021/04/30 05:17:08;;;;;;;;;;;;;;;13.62;84.11;98988.78;5134900;28;19924;-73
2021/04/30 05:19:35;;;;;;;;;;;;;;;13.62;84.08;98988.78;5135547;27;20361;-73
2021/04/30 05:22:08;;;;;;;;;;;;;;;13.61;83.86;98989.66;5139194;27;19970;-74
2021/04/30 05:24:38;;;;;;;;;;;;;;;13.60;83.40;98988.84;5139755;27;19923;-74
2021/04/30 05:27:06;;;;;;;;;;;;;;;13.62;83.26;98991.34;5139456;27;19952;-74
2021/04/30 05:29:34;;;;;;;;;;;;;;;13.63;82.82;98993.06;5139593;27;19923;-72
2021/04/30 05:32:02;;;;;;;;;;;;;;;13.66;82.67;98998.94;5138900;27;19927;-74
2021/04/30 05:34:35;;;;;;;;;;;;;;;13.69;82.05;99003.16;5139241;27;19924;-75
2021/04/30 05:37:03;;;;;;;;;;;;;;;13.71;81.85;99003.94;5138889;27;19923;-74
2021/04/30 05:39:31;;;;;;;;;;;;;;;13.74;81.42;99021.81;5138579;27;19923;-75
2021/04/30 05:42:00;;;;;;;;;;;;;;;13.75;81.26;99033.78;5138709;27;20343;-75
2021/04/30 05:44:28;;;;;;;;;;;;;;;13.74;80.98;99032.09;5138576;27;20369;-74
2021/04/30 05:46:56;;;;;;;;;;;;;;;13.80;80.89;99037.91;5138425;27;19958;-75
2021/04/30 05:49:26;;;;;;;;;;;;;;;13.84;80.62;99049.81;5138957;27;20262;-75
2021/04/30 05:51:54;;;;;;;;;;;;;;;13.87;80.10;99044.56;5138719;27;20297;-75
2021/04/30 05:54:22;;;;;;;;;;;;;;;13.91;79.98;99050.47;5138951;27;20357;-75
2021/04/30 05:56:49;;;;;;;;;;;;;;;13.90;79.28;99053.91;5138910;27;19924;-74
2021/04/30 05:59:18;;;;;;;;;;;;;;;13.92;78.64;99052.16;5138147;27;19927;-75
2021/04/30 06:01:46;;;;;;;;;;;;;;;13.96;78.46;99058.91;5138363;27;19952;-75
2021/04/30 06:04:14;;;;;;;;;;;;;;;14.01;77.36;99049.38;5138372;27;19923;-75
2021/04/30 06:06:41;;;;;;;;;;;;;;;14.07;77.02;99051.78;5138816;27;19931;-76
2021/04/30 06:09:09;;;;;;;;;;;;;;;14.16;76.84;99051.56;5139656;27;19924;-76
2021/04/30 06:11:37;;;;;;;;;;;;;;;14.16;75.42;99056.69;5139138;27;19938;-75
2021/04/30 06:14:07;;;;;;;;;;;;;;;14.18;74.83;99054.91;5138666;27;19923;-74
2021/04/30 06:16:36;;;;;;;;;;;;;;;14.24;74.76;99064.19;5120548;27;19924;-75
2021/04/30 06:19:04;;;;;;;;;;;;;;;14.27;74.21;99064.13;5139229;27;19946;-75
2021/04/30 06:21:32;;;;;;;;;;;;;;;14.31;73.48;99071.72;5138842;27;20026;-74
2021/04/30 06:24:01;;;;;;;;;;;;;;;14.35;72.85;99073.34;5138580;27;19924;-75
2021/04/30 06:26:29;;;;;;;;;;;;;;;14.41;72.23;99065.50;5138397;27;19946;-74
2021/04/30 06:28:56;;;;;;;;;;;;;;;14.48;72.23;99074.72;5138354;27;19923;-75
2021/04/30 06:31:24;;;;;;;;;;;;;;;14.57;72.12;99079.59;5138382;27;19927;-76
2021/04/30 06:33:53;;;;;;;;;;;;;;;14.59;71.98;99082.97;5138167;27;19996;-74
2021/04/30 06:36:21;;;;;;;;;;;;;;;14.57;71.36;99084.75;5137807;27;19923;-74
2021/04/30 06:38:49;;;;;;;;;;;;;;;14.59;71.52;99085.53;5137785;27;20335;-73
2021/04/30 06:41:16;;;;;;;;;;;;;;;14.61;71.50;99096.59;5137491;27;19973;-74
2021/04/30 06:43:45;;;;;;;;;;;;;;;14.61;71.31;99095.78;5137178;27;19923;-73
2021/04/30 06:46:12;;;;;;;;;;;;;;;14.63;71.67;99105.13;5137223;27;19938;-75
2021/04/30 06:48:44;;;;;;;;;;;;;;;14.61;71.80;99099.19;5119080;27;19930;-74
2021/04/30 06:51:12;;;;;;;;;;;;;;;14.59;71.49;99103.50;5137347;27;19931;-74
2021/04/30 06:53:40;;;;;;;;;;;;;;;14.58;71.18;99101.84;5137290;27;19931;-73
2021/04/30 06:56:08;;;;;;;;;;;;;;;14.54;70.75;99105.34;5137089;27;19924;-74
2021/04/30 06:58:36;;;;;;;;;;;;;;;14.55;70.76;99101.91;5115667;28;20369;-74
2021/04/30 07:01:03;;;;;;;;;;;;;;;14.55;70.94;99099.34;5116520;28;20377;-74
2021/04/30 07:03:31;;;;;;;;;;;;;;;14.56;70.39;99103.63;5116622;28;20373;-74
2021/04/30 07:05:59;;;;;;;;;;;;;;;14.49;70.46;99107.19;5116413;28;19985;-74
2021/04/30 07:08:29;;;;;;;;;;;;;;;14.47;70.36;99108.97;5116324;28;19924;-74
2021/04/30 07:10:57;;;;;;;;;;;;;;;14.47;70.40;99111.53;5116395;28;19930;-74
2021/04/30 07:13:24;;;;;;;;;;;;;;;14.47;70.62;99119.22;5116428;28;19924;-74
2021/04/30 07:15:52;;;;;;;;;;;;;;;14.50;70.39;99123.44;5116312;28;19924;-73
2021/04/30 07:18:20;;;;;;;;;;;;;;;14.51;70.98;99125.16;5116438;28;20007;-74
2021/04/30 07:20:49;;;;;;;;;;;;;;;14.53;71.06;99128.53;5116062;28;20415;-72
2021/04/30 07:23:16;;;;;;;;;;;;;;;14.51;71.20;99126.00;5116067;28;19924;-72
2021/04/30 07:25:46;;;;;;;;;;;;;;;14.51;71.18;99120.88;5115881;28;20002;-73
2021/04/30 07:28:15;;;;;;;;;;;;;;;14.54;71.55;99119.94;5116016;28;20270;-72
2021/04/30 07:30:43;;;;;;;;;;;;;;;14.58;71.39;99127.53;5115861;28;19931;-71
2021/04/30 07:33:11;;;;;;;;;;;;;;;14.65;72.38;99118.78;5115761;28;19924;-71
2021/04/30 07:35:40;;;;;;;;;;;;;;;14.69;72.23;99122.94;5116145;28;19977;-71
2021/04/30 07:38:08;;;;;;;;;;;;;;;14.73;72.26;99119.41;5115656;28;20423;-72
2021/04/30 07:40:38;;;;;;;;;;;;;;;14.75;72.15;99124.50;5115541;28;19969;-71
2021/04/30 07:43:07;;;;;;;;;;;;;;;14.81;72.75;99133.75;5115061;28;19930;-72
2021/04/30 07:45:36;;;;;;;;;;;;;;;14.86;72.70;99137.06;5115565;28;20018;-72
2021/04/30 07:48:07;;;;;;;;;;;;;;;14.90;72.97;99138.69;5115478;28;19924;-72
2021/04/30 07:50:36;;;;;;;;;;;;;;;14.95;73.20;99136.84;5115417;28;19923;-72
2021/04/30 07:53:04;;;;;;;;;;;;;;;14.98;72.99;99136.72;5114188;28;19927;-72
2021/04/30 07:55:33;;;;;;;;;;;;;;;14.69;73.35;99069.00;5115418;28;19928;-72
2021/04/30 07:58:00;;;;;;;;;;;;;;;15.04;73.38;99137.44;5115399;27;19924;-71
2021/04/30 08:00:30;;;;;;;;;;;;;;;15.06;73.24;99145.94;5117579;27;20363;-72
2021/04/30 08:02:58;;;;;;;;;;;;;;;15.13;73.22;99152.59;5135842;27;19923;-73
2021/04/30 08:05:27;;;;;;;;;;;;;;;15.19;73.90;99154.13;5136071;27;19928;-72
2021/04/30 08:07:55;;;;;;;;;;;;;;;15.24;73.64;99144.56;5135690;27;19931;-72
2021/04/30 08:10:23;;;;;;;;;;;;;;;15.28;74.00;99152.13;5136342;27;20373;-72
2021/04/30 08:12:51;;;;;;;;;;;;;;;15.25;73.92;99152.25;5135971;27;19924;-72
2021/04/30 08:15:19;;;;;;;;;;;;;;;15.32;73.62;99152.91;5135640;27;19923;-72
2021/04/30 08:17:47;;;;;;;;;;;;;;;15.45;73.42;99154.28;5135381;27;19970;-72
2021/04/30 08:20:15;;;;;;;;;;;;;;;15.60;73.26;99151.25;5135470;27;19923;-73
2021/04/30 08:22:43;;;;;;;;;;;;;;;15.65;72.62;99158.84;5135466;27;19935;-72
2021/04/30 08:25:11;;;;;;;;;;;;;;;15.71;71.50;99151.81;5135687;27;19948;-72
2021/04/30 08:27:39;;;;;;;;;;;;;;;15.68;70.81;99149.31;5135356;27;19928;-71
2021/04/30 08:30:07;;;;;;;;;;;;;;;15.69;70.83;99145.84;5117412;27;20289;-72
2021/04/30 08:32:35;;;;;;;;;;;;;;;15.67;70.50;99150.19;5135420;27;19931;-73
2021/04/30 08:35:05;;;;;;;;;;;;;;;15.69;69.97;99143.25;5135268;27;19927;-73
2021/04/30 08:37:32;;;;;;;;;;;;;;;15.67;69.46;99145.03;5135354;27;19930;-73
2021/04/30 08:40:01;;;;;;;;;;;;;;;15.84;69.15;99153.09;5135057;27;19963;-74
2021/04/30 08:42:29;;;;;;;;;;;;;;;16.00;68.84;99148.34;5099934;27;19923;-74
2021/04/30 08:44:56;;;;;;;;;;;;;;;16.10;67.74;99147.97;5134984;27;19923;-73
2021/04/30 08:47:24;;;;;;;;;;;;;;;16.29;66.48;99145.66;5134985;27;20334;-73
2021/04/30 08:49:54;;;;;;;;;;;;;;;16.56;65.83;99143.94;5135467;27;19923;-74
2021/04/30 08:52:22;;;;;;;;;;;;;;;16.89;65.30;99137.66;5135061;27;19938;-73
2021/04/30 08:54:54;;;;;;;;;;;;;;;17.13;65.61;99149.66;5134805;27;19969;-73
2021/04/30 08:57:25;;;;;;;;;;;;;;;17.22;65.55;99157.09;5134896;27;19927;-73
2021/04/30 08:59:57;;;;;;;;;;;;;;;17.20;65.14;99158.84;5134958;28;19934;-73
2021/04/30 09:02:26;;;;;;;;;;;;;;;17.44;65.18;99162.31;5135507;28;20270;-74
2021/04/30 09:04:54;;;;;;;;;;;;;;;17.70;64.61;99163.94;5135562;28;19924;-74
2021/04/30 09:07:25;;;;;;;;;;;;;;;17.81;62.99;99160.06;5134870;28;19924;-73
2021/04/30 09:09:56;;;;;;;;;;;;;;;17.75;61.47;99172.38;5134858;28;19972;-73
2021/04/30 09:12:25;;;;;;;;;;;;;;;18.09;61.99;99175.34;5134950;28;19923;-73
2021/04/30 09:14:53;;;;;;;;;;;;;;;18.07;60.88;99172.78;5134807;28;19953;-73
2021/04/30 09:17:21;;;;;;;;;;;;;;;18.04;60.90;99172.91;5134772;28;19931;-74
2021/04/30 09:19:51;;;;;;;;;;;;;;;18.08;60.28;99165.91;5134769;28;19930;-73
2021/04/30 09:22:19;;;;;;;;;;;;;;;18.13;59.38;99173.47;5134726;28;19923;-73
2021/04/30 09:25:09;;;;;;;;;;;;;;;18.37;59.47;99168.16;5134832;28;19924;-74
2021/04/30 09:27:38;;;;;;;;;;;;;;;18.40;58.76;99165.47;5134706;28;20277;-73
2021/04/30 09:30:20;;;;;;;;;;;;;;;18.31;58.49;99168.41;5134899;28;19924;-73
2021/04/30 09:33:09;;;;;;;;;;;;;;;18.55;58.32;99172.59;5134694;28;20373;-72
2021/04/30 09:35:38;;;;;;;;;;;;;;;18.48;56.98;99166.00;5128335;28;19931;-76
2021/04/30 09:38:16;;;;;;;;;;;;;;;18.46;56.04;99162.66;5134634;28;19928;-75
2021/04/30 09:40:45;;;;;;;;;;;;;;;18.52;55.99;99162.38;5134564;28;19952;-73
2021/04/30 09:43:13;;;;;;;;;;;;;;;18.66;55.63;99165.25;5134444;28;20308;-75
2021/04/30 09:45:44;;;;;;;;;;;;;;;18.80;55.26;99158.66;5134530;28;20006;-75
2021/04/30 09:48:13;;;;;;;;;;;;;;;18.93;54.97;99157.25;5134550;28;19923;-75
2021/04/30 09:50:42;;;;;;;;;;;;;;;19.06;55.11;99161.81;5134440;28;19930;-74
2021/04/30 09:53:10;;;;;;;;;;;;;;;19.18;55.43;99163.00;5134664;28;19924;-75
2021/04/30 09:55:39;;;;;;;;;;;;;;;19.27;55.49;99167.78;5134695;28;19933;-74
2021/04/30 09:58:15;;;;;;;;;;;;;;;19.35;55.11;99165.69;5134148;28;20000;-75
2021/04/30 10:00:43;;;;;;;;;;;;;;;19.39;54.34;99167.28;5134323;28;20411;-75
2021/04/30 10:03:15;;;;;;;;;;;;;;;19.58;54.02;99168.13;5134341;28;19951;-74
2021/04/30 10:05:54;;;;;;;;;;;;;;;19.69;53.94;99163.31;5135132;27;20427;-75
2021/04/30 10:08:21;;;;;;;;;;;;;;;19.74;53.47;99158.75;5138097;27;19954;-75
2021/04/30 10:10:49;;;;;;;;;;;;;;;19.72;52.96;99150.22;5138922;27;19947;-75
2021/04/30 10:13:38;;;;;;;;;;;;;;;19.95;53.65;99141.38;5137936;27;20300;-74
2021/04/30 10:16:07;;;;;;;;;;;;;;;20.25;54.76;99133.91;5119961;27;19931;-75
2021/04/30 10:18:38;;;;;;;;;;;;;;;20.10;53.21;99135.47;5137793;27;19923;-74
2021/04/30 10:21:06;;;;;;;;;;;;;;;19.96;52.75;99141.28;5137606;27;19973;-74
2021/04/30 10:23:35;;;;;;;;;;;;;;;20.27;53.58;99143.31;5137796;27;19923;-75
2021/04/30 10:26:16;;;;;;;;;;;;;;;20.46;53.07;99138.88;5137673;27;20296;-75
2021/04/30 10:28:48;;;;;;;;;;;;;;;20.31;51.93;99143.97;5137604;27;19955;-75
2021/04/30 10:31:17;;;;;;;;;;;;;;;20.22;50.48;99134.91;5137832;27;19930;-75
2021/04/30 10:33:48;;;;;;;;;;;;;;;20.21;50.52;99142.69;5137824;27;19930;-74
2021/04/30 10:36:18;;;;;;;;;;;;;;;20.33;51.02;99139.56;5137683;27;19930;-75
2021/04/30 10:38:47;;;;;;;;;;;;;;;20.32;51.11;99135.28;5119496;27;19938;-75
2021/04/30 10:41:15;;;;;;;;;;;;;;;20.35;50.83;99140.31;5137371;27;19924;-75
2021/04/30 10:43:44;;;;;;;;;;;;;;;20.29;50.56;99136.28;5138625;27;19951;-75
2021/04/30 10:46:22;;;;;;;;;;;;;;;20.46;51.91;99132.84;5137245;27;19962;-76
2021/04/30 10:49:00;;;;;;;;;;;;;;;20.71;50.74;99144.50;5137291;27;19969;-74
2021/04/30 10:51:28;;;;;;;;;;;;;;;20.51;49.98;99136.06;5119187;27;19952;-75
2021/04/30 10:54:16;;;;;;;;;;;;;;;20.53;49.83;99134.22;5137331;27;19959;-76
2021/04/30 10:56:44;;;;;;;;;;;;;;;20.55;49.45;99128.06;5119126;27;19928;-76
2021/04/30 10:59:11;;;;;;;;;;;;;;;20.53;49.36;99118.69;5138171;27;19927;-73
2021/04/30 11:01:48;;;;;;;;;;;;;;;20.48;49.18;99118.06;5138406;27;19927;-74
2021/04/30 11:04:28;;;;;;;;;;;;;;;20.33;48.64;99116.22;5137048;27;20006;-74
2021/04/30 11:06:58;;;;;;;;;;;;;;;20.29;48.55;99125.91;5136914;27;19930;-75
2021/04/30 11:09:30;;;;;;;;;;;;;;;20.37;48.74;99118.59;5136787;27;19923;-75
2021/04/30 11:12:02;;;;;;;;;;;;;;;20.49;48.33;99114.56;5136928;27;20014;-74
2021/04/30 11:14:38;;;;;;;;;;;;;;;20.59;48.00;99118.34;5136688;27;19931;-74
2021/04/30 11:17:38;;;;;;;;;;;;;;;20.72;47.59;99114.22;5136740;27;19923;-75
2021/04/30 11:20:12;;;;;;;;;;;;;;;20.71;46.93;99117.72;5136156;27;19923;-74
2021/04/30 11:23:11;;;;;;;;;;;;;;;20.83;47.01;99116.28;5136598;27;19924;-76
2021/04/30 11:25:53;;;;;;;;;;;;;;;20.85;47.04;99115.28;5136415;27;19928;-75
2021/04/30 11:28:21;;;;;;;;;;;;;;;20.72;46.53;99109.06;5136240;27;20250;-75
2021/04/30 11:30:59;;;;;;;;;;;;;;;20.82;46.62;99104.22;5136272;27;19923;-75
2021/04/30 11:33:29;;;;;;;;;;;;;;;20.78;46.48;99103.53;5136417;27;20010;-73
2021/04/30 11:35:57;;;;;;;;;;;;;;;21.03;46.76;99098.75;5136359;27;19931;-74
2021/04/30 11:38:34;;;;;;;;;;;;;;;21.25;46.59;99095.91;5136233;27;19944;-72
2021/04/30 11:41:03;;;;;;;;;;;;;;;21.13;45.12;99099.16;5136262;27;19923;-73
2021/04/30 11:43:30;;;;;;;;;;;;;;;21.13;45.36;99100.00;5136247;27;19924;-75
2021/04/30 11:45:58;;;;;;;;;;;;;;;21.38;45.22;99093.50;5136291;27;19929;-75
2021/04/30 11:48:27;;;;;;;;;;;;;;;21.59;45.16;99095.75;5117941;27;20019;-76
2021/04/30 11:51:00;;;;;;;;;;;;;;;21.62;44.66;99092.16;5136359;27;19962;-75
2021/04/30 11:53:27;;;;;;;;;;;;;;;21.58;43.96;99090.63;5136677;27;19924;-76
2021/04/30 11:55:57;;;;;;;;;;;;;;;21.49;43.58;99080.75;5136127;27;19930;-75
2021/04/30 11:58:34;;;;;;;;;;;;;;;21.56;43.42;99082.94;5136044;27;20399;-74
2021/04/30 12:01:03;;;;;;;;;;;;;;;21.67;43.65;99084.94;5136248;27;20331;-76
2021/04/30 12:03:41;;;;;;;;;;;;;;;21.66;42.85;99073.72;5139662;27;19923;-75
2021/04/30 12:06:13;;;;;;;;;;;;;;;21.58;42.83;99069.84;5156631;27;20376;-75
2021/04/30 12:08:42;;;;;;;;;;;;;;;21.64;42.81;99067.78;5156452;27;20337;-75
2021/04/30 12:11:22;;;;;;;;;;;;;;;21.68;42.38;99065.84;5156475;27;19930;-75
2021/04/30 12:13:51;;;;;;;;;;;;;;;21.67;42.15;99054.59;5156355;27;19923;-76
2021/04/30 12:16:20;;;;;;;;;;;;;;;21.71;42.05;99056.13;5156317;27;19930;-75
2021/04/30 12:18:49;;;;;;;;;;;;;;;21.83;41.88;99057.19;5156173;27;19923;-75
2021/04/30 12:21:25;;;;;;;;;;;;;;;21.71;41.89;99061.31;5157192;27;19966;-76
2021/04/30 12:23:53;;;;;;;;;;;;;;;21.41;41.83;99062.16;5156444;27;19930;-75
2021/04/30 12:26:24;;;;;;;;;;;;;;;21.35;42.20;99058.97;5156563;27;19931;-75
2021/04/30 12:28:54;;;;;;;;;;;;;;;21.56;42.21;99050.94;5155823;27;19923;-75
2021/04/30 12:31:28;;;;;;;;;;;;;;;21.71;42.71;99047.50;5156228;27;20392;-76
2021/04/30 12:34:04;;;;;;;;;;;;;;;21.56;41.71;99050.94;5157199;27;19927;-75
2021/04/30 12:36:33;;;;;;;;;;;;;;;21.63;42.27;99042.72;5156667;27;19923;-76
2021/04/30 12:39:02;;;;;;;;;;;;;;;21.82;43.04;99037.31;5156205;27;19923;-74
2021/04/30 12:41:30;;;;;;;;;;;;;;;22.09;43.37;99027.97;5155857;27;19930;-74
2021/04/30 12:43:59;;;;;;;;;;;;;;;22.24;42.94;99024.50;5156158;27;19958;-75
2021/04/30 12:46:28;;;;;;;;;;;;;;;22.29;43.14;99017.25;5137030;27;19930;-75
2021/04/30 12:48:56;;;;;;;;;;;;;;;22.30;42.59;99016.31;5155769;27;20369;-75
2021/04/30 12:51:25;;;;;;;;;;;;;;;22.35;42.54;99016.88;5156063;27;19945;-74
2021/04/30 12:53:54;;;;;;;;;;;;;;;22.35;41.42;99016.03;5155637;27;19923;-74
2021/04/30 12:56:28;;;;;;;;;;;;;;;22.23;40.61;99016.78;5155653;27;19922;-76
2021/04/30 12:59:07;;;;;;;;;;;;;;;22.33;40.94;99028.31;5154139;27;19923;-74